createdAt,value
2018-10-09T00:00:30.560Z,0.00
2018-10-09T00:01:30.484Z,0.00
2018-10-09T00:03:23.258Z,0.00
2018-10-09T00:04:23.187Z,0.00
2018-10-09T00:06:15.936Z,0.00
2018-10-09T00:07:15.869Z,0.00
2018-10-09T00:09:08.670Z,0.00
2018-10-09T00:10:08.582Z,0.00
2018-10-09T00:12:01.344Z,0.00
2018-10-09T00:13:01.273Z,0.00
2018-10-09T00:14:54.048Z,0.00
2018-10-09T00:15:53.959Z,0.00
2018-10-09T00:17:46.727Z,0.00
2018-10-09T00:18:46.655Z,0.00
2018-10-09T00:20:39.469Z,0.00
2018-10-09T00:21:39.387Z,0.00
2018-10-09T00:23:32.165Z,0.00
2018-10-09T00:24:32.088Z,0.00
2018-10-09T00:26:24.874Z,0.00
2018-10-09T00:27:24.797Z,0.00
2018-10-09T00:29:17.575Z,0.00
2018-10-09T00:32:10.254Z,0.00
2018-10-09T00:33:10.182Z,0.00
2018-10-09T00:35:02.957Z,0.00
2018-10-09T00:36:02.874Z,0.00
2018-10-09T00:37:55.651Z,0.00
2018-10-09T00:38:55.575Z,0.00
2018-10-09T00:40:48.335Z,0.00
2018-10-09T00:41:48.256Z,0.00
2018-10-09T00:43:41.035Z,0.00
2018-10-09T00:44:40.970Z,0.00
2018-10-09T00:46:33.719Z,0.00
2018-10-09T00:47:33.646Z,0.00
2018-10-09T00:49:26.448Z,0.00
2018-10-09T00:50:26.370Z,0.00
2018-10-09T00:52:19.138Z,0.00
2018-10-09T00:53:19.067Z,0.00
2018-10-09T00:55:11.870Z,0.00
2018-10-09T00:56:11.771Z,0.00
2018-10-09T00:58:04.531Z,0.00
2018-10-09T00:59:04.464Z,0.00
2018-10-09T01:00:57.232Z,0.00
2018-10-09T01:01:57.158Z,0.00
2018-10-09T01:03:49.918Z,0.00
2018-10-09T01:04:49.837Z,0.00
2018-10-09T01:06:42.623Z,0.00
2018-10-09T01:07:42.540Z,0.00
2018-10-09T01:09:35.308Z,0.00
2018-10-09T01:10:35.237Z,0.00
2018-10-09T01:12:28.005Z,0.00
2018-10-09T01:13:27.928Z,0.00
2018-10-09T01:15:20.701Z,0.00
2018-10-09T01:16:20.617Z,0.00
2018-10-09T01:18:13.388Z,0.00
2018-10-09T01:19:13.319Z,0.00
2018-10-09T01:21:06.106Z,0.00
2018-10-09T01:22:06.025Z,0.00
2018-10-09T01:23:58.800Z,0.00
2018-10-09T01:24:58.733Z,0.00
2018-10-09T01:26:51.486Z,0.00
2018-10-09T01:27:51.412Z,0.00
2018-10-09T01:29:44.189Z,0.00
2018-10-09T01:30:44.129Z,0.00
2018-10-09T01:32:36.852Z,0.00
2018-10-09T01:33:36.780Z,0.00
2018-10-09T01:35:29.552Z,0.00
2018-10-09T01:36:29.459Z,0.00
2018-10-09T01:38:22.222Z,0.00
2018-10-09T01:39:22.153Z,0.00
2018-10-09T01:41:14.934Z,0.00
2018-10-09T01:42:14.861Z,0.00
2018-10-09T01:44:07.632Z,0.00
2018-10-09T01:45:07.542Z,0.00
2018-10-09T01:47:00.329Z,0.00
2018-10-09T01:48:00.249Z,0.00
2018-10-09T01:49:53.020Z,0.00
2018-10-09T01:50:52.941Z,0.00
2018-10-09T01:52:45.707Z,0.00
2018-10-09T01:53:45.636Z,0.00
2018-10-09T01:55:38.448Z,0.00
2018-10-09T01:56:38.328Z,0.00
2018-10-09T01:58:31.103Z,0.00
2018-10-09T01:59:31.048Z,0.00
2018-10-09T02:01:23.807Z,0.00
2018-10-09T02:02:23.743Z,0.00
2018-10-09T02:04:16.516Z,0.00
2018-10-09T02:05:16.437Z,0.00
2018-10-09T02:07:09.185Z,0.00
2018-10-09T02:08:09.123Z,0.00
2018-10-09T02:10:01.883Z,0.00
2018-10-09T02:11:01.799Z,0.00
2018-10-09T02:12:54.559Z,0.00
2018-10-09T02:13:54.489Z,0.00
2018-10-09T02:15:47.295Z,0.00
2018-10-09T02:16:47.195Z,0.00
2018-10-09T02:18:39.964Z,0.00
2018-10-09T02:19:39.900Z,0.00
2018-10-09T02:21:32.900Z,0.00
2018-10-09T02:22:32.739Z,0.00
2018-10-09T02:24:25.649Z,0.00
2018-10-09T02:25:25.588Z,0.00
2018-10-09T02:27:18.518Z,0.00
2018-10-09T02:28:18.365Z,0.00
2018-10-09T02:30:11.356Z,0.00
2018-10-09T02:31:11.254Z,0.00
2018-10-09T02:33:04.187Z,0.00
2018-10-09T02:34:04.065Z,0.00
2018-10-09T02:35:56.914Z,0.00
2018-10-09T02:36:56.798Z,0.00
2018-10-09T02:38:49.592Z,0.00
2018-10-09T02:39:49.524Z,0.00
2018-10-09T02:41:42.413Z,0.00
2018-10-09T02:42:42.289Z,0.00
2018-10-09T02:44:35.105Z,0.00
2018-10-09T02:45:35.036Z,0.00
2018-10-09T02:47:27.828Z,0.00
2018-10-09T02:48:27.747Z,0.00
2018-10-09T02:50:20.676Z,0.00
2018-10-09T02:51:20.609Z,0.00
2018-10-09T02:53:13.476Z,0.00
2018-10-09T02:54:13.389Z,0.00
2018-10-09T02:56:06.388Z,0.00
2018-10-09T02:57:06.215Z,0.00
2018-10-09T02:58:59.009Z,0.00
2018-10-09T02:59:58.953Z,0.00
2018-10-09T03:01:51.828Z,0.00
2018-10-09T03:02:51.769Z,0.00
2018-10-09T03:04:44.588Z,0.00
2018-10-09T03:05:44.487Z,0.00
2018-10-09T03:07:37.375Z,0.00
2018-10-09T03:08:37.405Z,0.00
2018-10-09T03:10:30.137Z,0.00
2018-10-09T03:11:29.962Z,0.00
2018-10-09T03:13:22.711Z,0.00
2018-10-09T03:14:22.640Z,0.00
2018-10-09T03:16:15.422Z,0.00
2018-10-09T03:17:15.338Z,0.00
2018-10-09T03:19:08.106Z,0.00
2018-10-09T03:20:08.031Z,0.00
2018-10-09T03:22:00.816Z,0.00
2018-10-09T03:23:00.720Z,0.00
2018-10-09T03:24:53.518Z,0.00
2018-10-09T03:25:53.420Z,0.00
2018-10-09T03:27:46.185Z,0.00
2018-10-09T03:28:46.113Z,0.00
2018-10-09T03:30:38.901Z,0.00
2018-10-09T03:31:38.810Z,0.00
2018-10-09T03:33:31.619Z,0.00
2018-10-09T03:34:31.533Z,0.00
2018-10-09T03:36:24.325Z,0.00
2018-10-09T03:37:24.232Z,0.00
2018-10-09T03:39:16.995Z,0.00
2018-10-09T03:40:16.924Z,0.00
2018-10-09T03:42:09.720Z,0.00
2018-10-09T03:43:09.628Z,0.00
2018-10-09T03:45:02.451Z,0.00
2018-10-09T03:46:02.322Z,0.00
2018-10-09T03:47:55.104Z,0.00
2018-10-09T03:48:55.020Z,0.00
2018-10-09T03:50:47.812Z,0.00
2018-10-09T03:51:47.750Z,0.00
2018-10-09T03:53:40.523Z,0.00
2018-10-09T03:54:40.430Z,0.00
2018-10-09T03:56:33.213Z,0.00
2018-10-09T03:57:33.140Z,0.00
2018-10-09T03:59:25.916Z,0.00
2018-10-09T04:00:25.843Z,0.00
2018-10-09T04:02:18.607Z,0.00
2018-10-09T04:03:18.534Z,0.00
2018-10-09T04:05:11.282Z,0.00
2018-10-09T04:06:11.215Z,0.00
2018-10-09T04:08:03.983Z,0.00
2018-10-09T04:09:03.935Z,0.00
2018-10-09T04:10:56.657Z,0.00
2018-10-09T04:11:56.589Z,0.00
2018-10-09T04:13:49.359Z,0.00
2018-10-09T04:14:49.280Z,0.00
2018-10-09T04:16:42.051Z,0.00
2018-10-09T04:17:41.967Z,0.00
2018-10-09T04:19:34.823Z,0.00
2018-10-09T04:20:34.660Z,0.00
2018-10-09T04:22:27.431Z,0.00
2018-10-09T04:23:27.352Z,0.00
2018-10-09T04:25:20.119Z,0.00
2018-10-09T04:26:20.041Z,0.00
2018-10-09T04:28:12.826Z,0.00
2018-10-09T04:29:12.742Z,0.00
2018-10-09T04:31:05.519Z,0.00
2018-10-09T04:32:05.426Z,0.00
2018-10-09T04:33:58.188Z,0.00
2018-10-09T04:34:58.105Z,0.00
2018-10-09T04:36:50.882Z,0.00
2018-10-09T04:37:50.803Z,0.00
2018-10-09T04:39:43.591Z,0.00
2018-10-09T04:40:43.498Z,0.00
2018-10-09T04:42:36.287Z,0.00
2018-10-09T04:43:36.199Z,0.00
2018-10-09T04:45:29.025Z,0.00
2018-10-09T04:46:28.885Z,0.00
2018-10-09T04:48:21.661Z,0.00
2018-10-09T04:49:21.574Z,0.00
2018-10-09T04:51:14.348Z,0.00
2018-10-09T04:52:14.271Z,0.00
2018-10-09T04:54:07.020Z,0.00
2018-10-09T04:55:06.952Z,0.00
2018-10-09T04:56:59.726Z,0.00
2018-10-09T04:57:59.646Z,0.00
2018-10-09T04:59:52.452Z,0.00
2018-10-09T05:00:52.452Z,0.00
2018-10-09T05:02:45.142Z,0.00
2018-10-09T05:03:45.067Z,0.00
2018-10-09T05:05:37.821Z,0.00
2018-10-09T05:06:37.751Z,0.00
2018-10-09T05:08:30.522Z,0.00
2018-10-09T05:09:30.441Z,0.00
2018-10-09T05:11:23.219Z,0.00
2018-10-09T05:12:23.126Z,0.00
2018-10-09T05:14:15.874Z,0.00
2018-10-09T05:15:15.812Z,0.00
2018-10-09T05:17:08.592Z,0.00
2018-10-09T05:18:08.511Z,0.00
2018-10-09T05:20:01.255Z,0.00
2018-10-09T05:21:01.195Z,5.63
2018-10-09T05:22:53.965Z,5.63
2018-10-09T05:23:53.880Z,5.63
2018-10-09T05:25:46.640Z,5.63
2018-10-09T05:26:46.578Z,11.25
2018-10-09T05:28:39.341Z,11.25
2018-10-09T05:29:39.273Z,11.25
2018-10-09T05:31:32.094Z,16.88
2018-10-09T05:32:31.952Z,16.88
2018-10-09T05:34:24.712Z,16.88
2018-10-09T05:35:24.654Z,16.88
2018-10-09T05:37:17.436Z,22.50
2018-10-09T05:38:17.381Z,22.50
2018-10-09T05:40:10.122Z,28.13
2018-10-09T05:41:10.048Z,28.13
2018-10-09T05:43:02.859Z,28.13
2018-10-09T05:44:02.753Z,33.75
2018-10-09T05:45:55.506Z,39.38
2018-10-09T05:46:55.430Z,39.38
2018-10-09T05:48:48.192Z,39.38
2018-10-09T05:49:48.115Z,39.38
2018-10-09T05:51:40.873Z,39.38
2018-10-09T05:52:40.862Z,45.00
2018-10-09T05:54:33.561Z,45.00
2018-10-09T05:55:33.485Z,45.00
2018-10-09T05:57:26.246Z,50.63
2018-10-09T05:58:26.175Z,50.63
2018-10-09T06:00:18.926Z,56.25
2018-10-09T06:01:18.859Z,61.88
2018-10-09T06:03:11.645Z,67.50
2018-10-09T06:04:11.546Z,67.50
2018-10-09T06:06:04.384Z,73.13
2018-10-09T06:07:04.271Z,73.13
2018-10-09T06:08:57.111Z,78.75
2018-10-09T06:09:57.050Z,78.75
2018-10-09T06:11:49.963Z,90.00
2018-10-09T06:12:49.758Z,84.38
2018-10-09T06:14:42.559Z,84.38
2018-10-09T06:15:42.658Z,84.38
2018-10-09T06:17:35.381Z,84.38
2018-10-09T06:18:35.204Z,90.00
2018-10-09T06:20:28.009Z,90.00
2018-10-09T06:21:27.890Z,95.63
2018-10-09T06:23:20.656Z,106.88
2018-10-09T06:24:20.583Z,118.13
2018-10-09T06:26:13.352Z,135.00
2018-10-09T06:27:13.273Z,140.63
2018-10-09T06:29:06.054Z,146.25
2018-10-09T06:30:05.971Z,146.25
2018-10-09T06:31:58.752Z,174.38
2018-10-09T06:32:58.666Z,191.25
2018-10-09T06:34:51.425Z,202.50
2018-10-09T06:35:51.353Z,213.75
2018-10-09T06:37:44.128Z,241.88
2018-10-09T06:38:44.052Z,236.25
2018-10-09T06:40:36.862Z,202.50
2018-10-09T06:41:36.743Z,185.63
2018-10-09T06:43:29.525Z,191.25
2018-10-09T06:44:29.432Z,191.25
2018-10-09T06:46:22.193Z,225.00
2018-10-09T06:47:22.123Z,241.88
2018-10-09T06:49:14.892Z,230.63
2018-10-09T06:50:14.832Z,258.75
2018-10-09T06:52:07.586Z,270.00
2018-10-09T06:53:07.509Z,270.00
2018-10-09T06:55:00.282Z,219.38
2018-10-09T06:56:00.222Z,174.38
2018-10-09T06:57:52.987Z,180.00
2018-10-09T06:58:52.904Z,208.13
2018-10-09T07:00:45.680Z,185.63
2018-10-09T07:01:45.628Z,174.38
2018-10-09T07:03:38.405Z,174.38
2018-10-09T07:04:38.310Z,180.00
2018-10-09T07:06:31.079Z,180.00
2018-10-09T07:07:31.007Z,185.63
2018-10-09T07:09:23.830Z,191.25
2018-10-09T07:10:23.708Z,191.25
2018-10-09T07:12:16.505Z,196.88
2018-10-09T07:13:16.424Z,196.88
2018-10-09T07:15:09.181Z,202.50
2018-10-09T07:16:09.116Z,202.50
2018-10-09T07:18:01.926Z,230.63
2018-10-09T07:19:01.820Z,230.63
2018-10-09T07:20:54.601Z,230.63
2018-10-09T07:21:54.536Z,230.63
2018-10-09T07:23:47.339Z,219.38
2018-10-09T07:24:47.245Z,213.75
2018-10-09T07:26:40.010Z,213.75
2018-10-09T07:27:39.943Z,219.38
2018-10-09T07:29:32.718Z,230.63
2018-10-09T07:30:32.635Z,230.63
2018-10-09T07:32:25.414Z,230.63
2018-10-09T07:33:25.347Z,236.25
2018-10-09T07:35:18.117Z,241.88
2018-10-09T07:36:18.045Z,247.50
2018-10-09T07:38:10.827Z,275.63
2018-10-09T07:39:10.753Z,309.38
2018-10-09T07:41:03.510Z,393.75
2018-10-09T07:42:03.452Z,416.25
2018-10-09T07:43:56.285Z,376.88
2018-10-09T07:44:56.153Z,337.50
2018-10-09T07:46:48.925Z,286.88
2018-10-09T07:47:48.843Z,264.38
2018-10-09T07:49:41.645Z,247.50
2018-10-09T07:50:41.570Z,241.88
2018-10-09T07:52:34.316Z,253.13
2018-10-09T07:53:34.250Z,270.00
2018-10-09T07:55:27.047Z,326.25
2018-10-09T07:56:26.959Z,331.88
2018-10-09T07:58:19.783Z,331.88
2018-10-09T07:59:19.689Z,303.75
2018-10-09T08:01:12.457Z,258.75
2018-10-09T08:02:12.384Z,247.50
2018-10-09T08:04:05.154Z,258.75
2018-10-09T08:05:05.115Z,275.63
2018-10-09T08:06:57.852Z,264.38
2018-10-09T08:07:57.781Z,270.00
2018-10-09T08:09:50.552Z,292.50
2018-10-09T08:10:50.583Z,292.50
2018-10-09T08:12:43.245Z,360.00
2018-10-09T08:13:43.178Z,326.25
2018-10-09T08:15:35.965Z,331.88
2018-10-09T08:16:35.887Z,354.38
2018-10-09T08:18:28.740Z,421.88
2018-10-09T08:19:28.660Z,461.25
2018-10-09T08:21:21.396Z,483.75
2018-10-09T08:22:21.404Z,495.00
2018-10-09T08:24:14.095Z,556.88
2018-10-09T08:25:14.020Z,613.13
2018-10-09T08:27:06.805Z,641.25
2018-10-09T08:28:06.840Z,652.50
2018-10-09T08:29:59.558Z,579.38
2018-10-09T08:30:59.452Z,607.50
2018-10-09T08:32:52.218Z,590.63
2018-10-09T08:33:52.153Z,607.50
2018-10-09T08:35:44.959Z,601.88
2018-10-09T08:36:44.863Z,596.25
2018-10-09T08:38:37.654Z,585.00
2018-10-09T08:39:37.583Z,540.00
2018-10-09T08:41:30.350Z,472.50
2018-10-09T08:42:30.320Z,466.88
2018-10-09T08:44:23.070Z,421.88
2018-10-09T08:45:23.007Z,399.38
2018-10-09T08:47:15.758Z,360.00
2018-10-09T08:48:15.720Z,354.38
2018-10-09T08:50:08.525Z,315.00
2018-10-09T08:51:08.434Z,320.63
2018-10-09T08:53:01.260Z,292.50
2018-10-09T08:54:01.152Z,281.25
2018-10-09T08:55:54.026Z,270.00
2018-10-09T08:56:53.910Z,286.88
2018-10-09T08:58:46.739Z,309.38
2018-10-09T08:59:46.652Z,292.50
2018-10-09T09:01:39.423Z,258.75
2018-10-09T09:02:39.368Z,253.13
2018-10-09T09:04:32.145Z,241.88
2018-10-09T09:05:32.072Z,236.25
2018-10-09T09:07:24.888Z,230.63
2018-10-09T09:08:24.791Z,230.63
2018-10-09T09:10:17.568Z,208.13
2018-10-09T09:11:17.499Z,213.75
2018-10-09T09:13:10.269Z,230.63
2018-10-09T09:14:10.250Z,236.25
2018-10-09T09:16:03.012Z,331.88
2018-10-09T09:17:02.963Z,410.63
2018-10-09T09:18:55.777Z,461.25
2018-10-09T09:19:55.702Z,495.00
2018-10-09T09:21:48.467Z,641.25
2018-10-09T09:22:48.399Z,675.00
2018-10-09T09:24:41.238Z,483.75
2018-10-09T09:25:41.112Z,405.00
2018-10-09T09:27:33.914Z,303.75
2018-10-09T09:28:33.815Z,360.00
2018-10-09T09:30:26.597Z,388.13
2018-10-09T09:31:26.530Z,405.00
2018-10-09T09:33:19.367Z,652.50
2018-10-09T09:34:19.240Z,731.25
2018-10-09T09:36:12.019Z,731.25
2018-10-09T09:37:11.951Z,725.63
2018-10-09T09:39:04.746Z,697.50
2018-10-09T09:40:04.662Z,742.50
2018-10-09T09:41:57.442Z,658.13
2018-10-09T09:42:57.406Z,573.75
2018-10-09T09:44:50.164Z,511.88
2018-10-09T09:45:50.163Z,534.38
2018-10-09T09:47:42.867Z,511.88
2018-10-09T09:48:42.800Z,540.00
2018-10-09T09:50:35.614Z,545.63
2018-10-09T09:51:35.550Z,579.38
2018-10-09T09:53:28.346Z,528.75
2018-10-09T09:54:28.264Z,472.50
2018-10-09T09:56:21.053Z,495.00
2018-10-09T09:57:20.996Z,421.88
2018-10-09T09:59:13.805Z,517.50
2018-10-09T10:00:13.695Z,556.88
2018-10-09T10:02:06.460Z,635.63
2018-10-09T10:03:06.406Z,528.75
2018-10-09T10:04:59.180Z,472.50
2018-10-09T10:05:59.110Z,489.38
2018-10-09T10:07:51.911Z,517.50
2018-10-09T10:08:51.839Z,472.50
2018-10-09T10:10:44.639Z,528.75
2018-10-09T10:11:44.562Z,466.88
2018-10-09T10:13:37.356Z,371.25
2018-10-09T10:14:37.294Z,343.13
2018-10-09T10:16:30.070Z,483.75
2018-10-09T10:17:30.003Z,495.00
2018-10-09T10:19:22.790Z,444.38
2018-10-09T10:20:22.718Z,472.50
2018-10-09T10:22:15.484Z,478.13
2018-10-09T10:23:15.422Z,506.25
2018-10-09T10:25:08.198Z,540.00
2018-10-09T10:26:08.124Z,461.25
2018-10-09T10:28:00.896Z,686.25
2018-10-09T10:29:00.903Z,686.25
2018-10-09T10:30:53.618Z,461.25
2018-10-09T10:31:53.551Z,292.50
2018-10-09T10:33:46.335Z,331.88
2018-10-09T10:34:46.272Z,348.75
2018-10-09T10:36:39.063Z,343.13
2018-10-09T10:37:38.982Z,331.88
2018-10-09T10:39:31.766Z,444.38
2018-10-09T10:40:31.693Z,528.75
2018-10-09T10:42:24.482Z,742.50
2018-10-09T10:43:24.419Z,748.13
2018-10-09T10:45:17.252Z,669.38
2018-10-09T10:46:17.178Z,579.38
2018-10-09T10:48:09.966Z,528.75
2018-10-09T10:49:09.963Z,376.88
2018-10-09T10:51:02.676Z,416.25
2018-10-09T10:52:02.610Z,421.88
2018-10-09T10:53:55.385Z,421.88
2018-10-09T10:54:55.377Z,382.50
2018-10-09T10:56:48.178Z,275.63
2018-10-09T10:57:48.068Z,270.00
2018-10-09T10:59:40.856Z,258.75
2018-10-09T11:00:40.788Z,258.75
2018-10-09T11:02:33.573Z,270.00
2018-10-09T11:03:33.498Z,253.13
2018-10-09T11:05:26.280Z,241.88
2018-10-09T11:06:26.218Z,236.25
2018-10-09T11:08:18.994Z,236.25
2018-10-09T11:09:18.926Z,236.25
2018-10-09T11:11:11.730Z,225.00
2018-10-09T11:12:11.665Z,219.38
2018-10-09T11:14:04.448Z,219.38
2018-10-09T11:15:04.385Z,219.38
2018-10-09T11:16:57.182Z,213.75
2018-10-09T11:17:57.093Z,213.75
2018-10-09T11:19:49.894Z,219.38
2018-10-09T11:20:49.812Z,225.00
2018-10-09T11:22:42.596Z,230.63
2018-10-09T11:23:42.532Z,236.25
2018-10-09T11:25:35.326Z,236.25
2018-10-09T11:26:35.258Z,241.88
2018-10-09T11:28:28.023Z,241.88
2018-10-09T11:29:27.972Z,247.50
2018-10-09T11:31:20.739Z,247.50
2018-10-09T11:32:20.720Z,247.50
2018-10-09T11:34:13.467Z,247.50
2018-10-09T11:35:13.408Z,253.13
2018-10-09T11:37:06.200Z,253.13
2018-10-09T11:38:06.110Z,247.50
2018-10-09T11:39:58.929Z,247.50
2018-10-09T11:40:58.837Z,247.50
2018-10-09T11:42:51.713Z,247.50
2018-10-09T11:43:51.549Z,247.50
2018-10-09T11:45:44.331Z,253.13
2018-10-09T11:46:44.262Z,253.13
2018-10-09T11:48:37.032Z,253.13
2018-10-09T11:49:36.975Z,247.50
2018-10-09T11:51:29.755Z,247.50
2018-10-09T11:52:29.681Z,241.88
2018-10-09T11:54:22.460Z,236.25
2018-10-09T11:55:22.385Z,236.25
2018-10-09T11:57:15.172Z,230.63
2018-10-09T11:58:15.174Z,225.00
2018-10-09T12:00:07.891Z,213.75
2018-10-09T12:01:07.819Z,213.75
2018-10-09T12:03:00.623Z,213.75
2018-10-09T12:04:00.564Z,208.13
2018-10-09T12:05:53.375Z,202.50
2018-10-09T12:06:53.262Z,202.50
2018-10-09T12:08:46.038Z,202.50
2018-10-09T12:09:45.980Z,208.13
2018-10-09T12:11:38.791Z,219.38
2018-10-09T12:12:38.711Z,219.38
2018-10-09T12:14:31.506Z,208.13
2018-10-09T12:15:31.423Z,208.13
2018-10-09T12:17:24.209Z,208.13
2018-10-09T12:18:24.135Z,208.13
2018-10-09T12:20:16.903Z,191.25
2018-10-09T12:21:16.890Z,185.63
2018-10-09T12:23:09.624Z,191.25
2018-10-09T12:24:09.551Z,191.25
2018-10-09T12:26:02.338Z,185.63
2018-10-09T12:27:02.322Z,185.63
2018-10-09T12:28:55.033Z,185.63
2018-10-09T12:29:54.971Z,196.88
2018-10-09T12:31:47.787Z,202.50
2018-10-09T12:32:47.687Z,208.13
2018-10-09T12:34:40.488Z,196.88
2018-10-09T12:35:40.389Z,196.88
2018-10-09T12:37:33.162Z,191.25
2018-10-09T12:38:33.143Z,185.63
2018-10-09T12:40:25.869Z,174.38
2018-10-09T12:41:25.803Z,174.38
2018-10-09T12:43:18.591Z,180.00
2018-10-09T12:44:18.583Z,180.00
2018-10-09T12:46:11.321Z,185.63
2018-10-09T12:47:11.246Z,196.88
2018-10-09T12:49:03.208Z,208.13
2018-10-09T12:50:03.145Z,213.75
2018-10-09T12:51:55.942Z,213.75
2018-10-09T12:52:55.882Z,202.50
2018-10-09T12:54:48.623Z,185.63
2018-10-09T12:55:48.563Z,185.63
2018-10-09T12:57:41.360Z,174.38
2018-10-09T12:58:41.374Z,174.38
2018-10-09T13:00:34.055Z,174.38
2018-10-09T13:01:33.994Z,168.75
2018-10-09T13:03:26.776Z,168.75
2018-10-09T13:04:26.696Z,168.75
2018-10-09T13:06:19.492Z,163.13
2018-10-09T13:07:19.402Z,163.13
2018-10-09T13:09:12.186Z,163.13
2018-10-09T13:10:12.125Z,157.50
2018-10-09T13:12:04.907Z,157.50
2018-10-09T13:13:04.825Z,157.50
2018-10-09T13:14:57.652Z,157.50
2018-10-09T13:15:57.582Z,157.50
2018-10-09T13:17:50.368Z,163.13
2018-10-09T13:18:50.295Z,163.13
2018-10-09T13:20:43.066Z,185.63
2018-10-09T13:21:43.206Z,191.25
2018-10-09T13:23:35.774Z,196.88
2018-10-09T13:24:35.710Z,196.88
2018-10-09T13:26:28.492Z,185.63
2018-10-09T13:27:28.418Z,180.00
2018-10-09T13:29:21.191Z,174.38
2018-10-09T13:30:21.131Z,168.75
2018-10-09T13:32:13.911Z,174.38
2018-10-09T13:33:13.844Z,180.00
2018-10-09T13:35:06.611Z,174.38
2018-10-09T13:36:06.553Z,174.38
2018-10-09T13:37:59.387Z,168.75
2018-10-09T13:38:59.256Z,163.13
2018-10-09T13:40:52.068Z,163.13
2018-10-09T13:41:51.960Z,163.13
2018-10-09T13:43:44.739Z,157.50
2018-10-09T13:44:44.672Z,157.50
2018-10-09T13:46:37.450Z,157.50
2018-10-09T13:47:37.548Z,157.50
2018-10-09T13:49:30.159Z,157.50
2018-10-09T13:50:30.185Z,163.13
2018-10-09T13:52:22.975Z,157.50
2018-10-09T13:53:22.817Z,157.50
2018-10-09T13:55:15.645Z,146.25
2018-10-09T13:56:15.516Z,146.25
2018-10-09T13:58:08.326Z,140.63
2018-10-09T13:59:08.233Z,140.63
2018-10-09T14:01:01.005Z,135.00
2018-10-09T14:02:00.940Z,135.00
2018-10-09T14:03:53.737Z,129.38
2018-10-09T14:04:53.669Z,129.38
2018-10-09T14:06:46.447Z,123.75
2018-10-09T14:07:46.372Z,123.75
2018-10-09T14:09:39.151Z,118.13
2018-10-09T14:10:39.087Z,118.13
2018-10-09T14:12:31.880Z,112.50
2018-10-09T14:13:31.803Z,106.88
2018-10-09T14:15:24.590Z,101.25
2018-10-09T14:16:24.591Z,101.25
2018-10-09T14:18:17.301Z,95.63
2018-10-09T14:19:17.236Z,95.63
2018-10-09T14:21:10.005Z,90.00
2018-10-09T14:22:09.994Z,90.00
2018-10-09T14:24:02.724Z,90.00
2018-10-09T14:25:02.655Z,90.00
2018-10-09T14:26:55.431Z,90.00
2018-10-09T14:27:55.358Z,90.00
2018-10-09T14:29:48.141Z,90.00
2018-10-09T14:30:48.068Z,90.00
2018-10-09T14:32:40.877Z,90.00
2018-10-09T14:33:40.800Z,95.63
2018-10-09T14:35:33.580Z,90.00
2018-10-09T14:36:33.506Z,90.00
2018-10-09T14:38:26.340Z,90.00
2018-10-09T14:39:26.260Z,90.00
2018-10-09T14:41:19.033Z,95.63
2018-10-09T14:42:18.965Z,101.25
2018-10-09T14:44:11.830Z,106.88
2018-10-09T14:45:11.696Z,106.88
2018-10-09T14:47:04.501Z,106.88
2018-10-09T14:48:04.418Z,106.88
2018-10-09T14:49:57.190Z,90.00
2018-10-09T14:50:57.127Z,90.00
2018-10-09T14:52:49.934Z,84.38
2018-10-09T14:53:49.848Z,78.75
2018-10-09T14:55:42.617Z,67.50
2018-10-09T14:56:42.557Z,67.50
2018-10-09T14:58:35.326Z,67.50
2018-10-09T14:59:35.252Z,73.13
2018-10-09T15:01:28.023Z,78.75
2018-10-09T15:02:27.959Z,78.75
2018-10-09T15:04:20.742Z,84.38
2018-10-09T15:05:20.682Z,84.38
2018-10-09T15:07:13.443Z,84.38
2018-10-09T15:08:13.379Z,84.38
2018-10-09T15:10:06.158Z,95.63
2018-10-09T15:11:06.084Z,90.00
2018-10-09T15:12:58.883Z,90.00
2018-10-09T15:13:58.817Z,84.38
2018-10-09T15:15:51.596Z,84.38
2018-10-09T15:16:51.620Z,84.38
2018-10-09T15:18:44.314Z,78.75
2018-10-09T15:19:44.237Z,73.13
2018-10-09T15:21:37.001Z,78.75
2018-10-09T15:22:36.941Z,73.13
2018-10-09T15:24:29.748Z,73.13
2018-10-09T15:25:29.676Z,73.13
2018-10-09T15:27:22.454Z,67.50
2018-10-09T15:28:22.379Z,67.50
2018-10-09T15:30:15.158Z,61.88
2018-10-09T15:31:15.106Z,56.25
2018-10-09T15:33:07.899Z,56.25
2018-10-09T15:34:07.817Z,50.63
2018-10-09T15:36:00.929Z,50.63
2018-10-09T15:37:00.874Z,45.00
2018-10-09T15:38:53.663Z,45.00
2018-10-09T15:39:53.583Z,45.00
2018-10-09T15:41:46.373Z,39.38
2018-10-09T15:42:46.320Z,39.38
2018-10-09T15:44:39.090Z,45.00
2018-10-09T15:45:39.026Z,45.00
2018-10-09T15:47:31.810Z,45.00
2018-10-09T15:48:31.732Z,39.38
2018-10-09T15:50:24.514Z,39.38
2018-10-09T15:51:24.438Z,39.38
2018-10-09T15:53:17.276Z,33.75
2018-10-09T15:54:17.198Z,33.75
2018-10-09T15:56:09.979Z,33.75
2018-10-09T15:57:09.908Z,33.75
2018-10-09T15:59:02.695Z,28.13
2018-10-09T16:00:02.615Z,28.13
2018-10-09T16:01:55.386Z,22.50
2018-10-09T16:02:55.338Z,22.50
2018-10-09T16:04:48.110Z,16.88
2018-10-09T16:05:48.025Z,16.88
2018-10-09T16:07:40.831Z,16.88
2018-10-09T16:08:40.730Z,11.25
2018-10-09T16:10:33.502Z,11.25
2018-10-09T16:11:33.437Z,11.25
2018-10-09T16:13:26.229Z,11.25
2018-10-09T16:14:26.146Z,5.63
2018-10-09T16:16:18.950Z,5.63
2018-10-09T16:17:18.885Z,5.63
2018-10-09T16:19:11.651Z,5.63
2018-10-09T16:20:11.570Z,5.63
2018-10-09T16:22:04.375Z,0.00
2018-10-09T16:23:04.280Z,0.00
2018-10-09T16:24:57.078Z,0.00
2018-10-09T16:25:57.008Z,0.00
2018-10-09T16:27:49.771Z,0.00
2018-10-09T16:28:49.729Z,0.00
2018-10-09T16:30:42.503Z,0.00
2018-10-09T16:31:42.431Z,0.00
2018-10-09T16:33:35.210Z,0.00
2018-10-09T16:34:35.141Z,0.00
2018-10-09T16:36:27.958Z,0.00
2018-10-09T16:37:27.892Z,0.00
2018-10-09T16:39:20.674Z,0.00
2018-10-09T16:40:20.613Z,0.00
2018-10-09T16:42:13.372Z,0.00
2018-10-09T16:43:13.322Z,0.00
2018-10-09T16:45:06.106Z,0.00
2018-10-09T16:46:06.023Z,0.00
2018-10-09T16:47:58.800Z,0.00
2018-10-09T16:48:58.738Z,0.00
2018-10-09T16:50:51.510Z,0.00
2018-10-09T16:51:51.435Z,0.00
2018-10-09T16:53:44.518Z,0.00
2018-10-09T16:54:44.446Z,0.00
2018-10-09T16:56:37.219Z,0.00
2018-10-09T16:57:37.144Z,0.00
2018-10-09T16:59:29.919Z,0.00
2018-10-09T17:00:29.964Z,0.00
2018-10-09T17:02:22.624Z,0.00
2018-10-09T17:03:22.550Z,0.00
2018-10-09T17:05:15.334Z,0.00
2018-10-09T17:06:15.252Z,0.00
2018-10-09T17:08:08.029Z,0.00
2018-10-09T17:09:07.965Z,0.00
2018-10-09T17:11:00.745Z,0.00
2018-10-09T17:12:00.663Z,0.00
2018-10-09T17:13:53.450Z,0.00
2018-10-09T17:14:53.373Z,0.00
2018-10-09T17:16:46.142Z,0.00
2018-10-09T17:17:46.069Z,0.00
2018-10-09T17:19:38.873Z,0.00
2018-10-09T17:20:38.807Z,0.00
2018-10-09T17:22:31.613Z,0.00
2018-10-09T17:23:31.481Z,0.00
2018-10-09T17:25:24.250Z,0.00
2018-10-09T17:26:24.180Z,0.00
2018-10-09T17:28:17.048Z,0.00
2018-10-09T17:29:16.873Z,0.00
2018-10-09T17:31:09.686Z,0.00
2018-10-09T17:32:09.572Z,0.00
2018-10-09T17:34:02.349Z,0.00
2018-10-09T17:35:02.272Z,0.00
2018-10-09T17:36:55.041Z,0.00
2018-10-09T17:37:54.973Z,0.00
2018-10-09T17:39:47.762Z,0.00
2018-10-09T17:40:47.668Z,0.00
2018-10-09T17:42:40.442Z,0.00
2018-10-09T17:43:40.387Z,0.00
2018-10-09T17:45:33.167Z,0.00
2018-10-09T17:46:33.299Z,0.00
2018-10-09T17:48:25.885Z,0.00
2018-10-09T17:49:25.784Z,0.00
2018-10-09T17:51:18.554Z,0.00
2018-10-09T17:52:18.477Z,0.00
2018-10-09T17:54:11.245Z,0.00
2018-10-09T17:55:11.175Z,0.00
2018-10-09T17:57:03.935Z,0.00
2018-10-09T17:58:03.866Z,0.00
2018-10-09T17:59:56.679Z,0.00
2018-10-09T18:00:56.565Z,0.00
2018-10-09T18:02:49.334Z,0.00
2018-10-09T18:03:49.274Z,0.00
2018-10-09T18:05:42.068Z,0.00
2018-10-09T18:06:41.998Z,0.00
2018-10-09T18:08:34.767Z,0.00
2018-10-09T18:09:34.704Z,0.00
2018-10-09T18:11:27.499Z,0.00
2018-10-09T18:12:27.407Z,0.00
2018-10-09T18:14:20.185Z,0.00
2018-10-09T18:15:20.111Z,0.00
2018-10-09T18:17:12.865Z,0.00
2018-10-09T18:18:12.809Z,0.00
2018-10-09T18:20:05.660Z,0.00
2018-10-09T18:21:05.528Z,0.00
2018-10-09T18:22:58.312Z,0.00
2018-10-09T18:23:58.266Z,0.00
2018-10-09T18:25:51.084Z,0.00
2018-10-09T18:26:51.019Z,0.00
2018-10-09T18:28:43.748Z,0.00
2018-10-09T18:29:43.683Z,0.00
2018-10-09T18:31:36.451Z,0.00
2018-10-09T18:32:36.453Z,0.00